Flight Track Log - Related Links

Times and Time Zones

All times are in EDT time to prevent confusion due to time zone crossing. See the EJA941 flight status page for this flight to view local times or setup timezone preferences in your user account.

Time Position Orientation Groundspeed Altitude Reporting Facility
EDT Latitude Longitude Course Direction KTS MPH feet Rate Location/Type
Mon 02:47:29 PM 41.2975 -70.1439 284° West 223 257 7,100  Level Boston Center
Mon 02:48:30 PM 41.3806 -70.1328 North 241 277 11,100 2,826 Climbing Boston Center
Mon 02:49:30 PM 41.4700 -70.1183 North 304 350 12,800 1,613 Climbing Boston Center
Mon 02:50:29 PM 41.5719 -70.1092 North 325 374 14,300 1,600 Climbing Boston Center
Mon 02:51:00 PM 41.8003 -70.0333 North  Level FlightAware Approximate
Mon 02:51:30 PM 41.6364 -70.2014 313° West 315 362 16,000  Level Boston Center
Mon 02:52:00 PM 41.9104 -70.0333 North  Level FlightAware Approximate
Mon 02:52:30 PM 41.6636 -70.3281 286° West 312 359 17,500  Level Boston Center
Mon 02:53:00 PM 42.0176 -70.0385 284° West  Level FlightAware Approximate
Mon 02:53:28 PM 41.6933 -70.4633 286° West 341 392 19,000  Level Boston Center
Mon 02:54:29 PM 41.7161 -70.5850 284° West 347 399 20,300 1,438 Climbing Boston Center
Mon 02:55:29 PM 41.7475 -70.7233 287° West 366 421 21,900 850 Climbing Boston Center
Mon 02:56:29 PM 41.7811 -70.8728 287° West 381 438 22,000 50 Climbing Boston Center
Mon 02:57:30 PM 41.8122 -71.0194 286° West 412 474 22,000  Level Boston Center
Mon 02:58:30 PM 41.8389 -71.1667 284° West 412 474 22,000  Level Boston Center
Mon 02:59:28 PM 41.8614 -71.3167 281° West 412 474 22,000  Level Boston Center
Mon 03:00:28 PM 41.8794 -71.4697 279° West 412 474 22,000  Level Boston Center
Mon 03:01:29 PM 41.8953 -71.6231 278° West 412 474 22,000  Level Boston Center
Mon 03:02:29 PM 41.9128 -71.7733 279° West 412 474 22,000  Level Boston Center
Mon 03:03:31 PM 41.9303 -71.9267 279° West 412 474 22,000  Level Boston Center
Mon 03:04:28 PM 41.9453 -72.0467 280° West 412 474 22,000 -738 Level Boston Center
Mon 03:05:41 PM 41.9667 -72.2250 279° West 412 474 20,400 -1,850 Descending Boston Center
Mon 03:06:41 PM 41.9878 -72.4039 279° West 407 468 17,900 -2,182 Descending Boston Center
Mon 03:07:42 PM 42.0022 -72.5575 277° West 412 474 16,000 -958 Descending Boston Center
Mon 03:08:40 PM 42.0186 -72.6944 279° West 412 474 16,000  Level Boston Center
Mon 03:09:40 PM 42.0328 -72.8342 278° West 407 468 16,000  Level Boston Center
Mon 03:10:41 PM 42.0511 -72.9908 279° West 390 449 16,000  Level Boston Center
Mon 03:11:42 PM 42.0650 -73.1197 278° West 390 449 16,000  Level Boston Center
Mon 03:12:43 PM 42.0825 -73.2792 278° West 390 449 16,000  Level Boston Center
Mon 03:13:40 PM 42.0939 -73.4164 276° West 396 456 16,000  Level Boston Center
Mon 03:14:41 PM 42.1050 -73.5650 276° West 401 461 16,000  Level Boston Center
Mon 03:15:41 PM 42.0931 -73.7131 264° West 402 463 16,000  Level Boston Center
Mon 03:16:42 PM 42.0808 -73.8750 264° West 396 456 16,000  Level Boston Center
Mon 03:17:42 PM 42.0603 -74.0089 258° West 407 468 16,000 51 Level Boston Center
Mon 03:18:40 PM 41.9794 -74.1131 224° Southwest 397 457 16,100 -454 Climbing Boston Center
Mon 03:19:41 PM 41.8761 -74.2022 213° Southwest 397 457 15,100 -1,279 Descending Boston Center
Mon 03:20:42 PM 41.7936 -74.2722 212° Southwest 397 457 13,500 -1,884 Descending Boston Center
Mon 03:21:42 PM 41.6986 -74.3531 212° Southwest 386 444 11,300 -1,934 Descending Boston Center
Mon 03:22:43 PM 41.6308 -74.4092 212° Southwest 349 402 9,600 -1,600 Descending Boston Center
Mon 03:23:42 PM 41.5569 -74.4708 212° Southwest 307 353 8,100 -1,550 Descending Boston Center
Mon 03:24:43 PM 41.4975 -74.5189 211° Southwest 280 322 6,500 -769 Descending Boston Center
Mon 03:26:18 PM 41.3833 -74.6000 208° Southwest 263 303 6,100 -155 Descending New York TRACON
Mon 03:27:18 PM 41.3167 -74.6333 201° Southwest 278 320 6,100 -350 Level New York TRACON
Mon 03:28:18 PM 41.2333 -74.6333 180° South 285 328 5,400 -992 Descending New York TRACON
Mon 03:29:19 PM 41.1833 -74.5833 143° Southeast 278 320 4,100 -645 Descending New York TRACON
Mon 03:30:19 PM 41.1500 -74.4833 114° Southeast 268 308 4,100  Level New York TRACON
Mon 03:31:19 PM 41.1333 -74.4000 105° East 269 310 4,100 -300 Level New York TRACON
Mon 03:32:19 PM 41.1000 -74.3000 114° Southeast 268 308 3,500 -526 Descending New York TRACON
Mon 03:33:13 PM 41.0833 -74.2167 105° East 263 303 3,100 -211 Descending New York TRACON
Mon 03:34:13 PM 41.0500 -74.1333 118° Southeast 213 245 3,100 -429 Level New York TRACON
Mon 03:35:19 PM 41.0333 -74.0667 108° East 195 224 2,200 -450 Descending New York TRACON
Mon 03:36:13 PM 41.0000 -74.0500 159° South 179 206 2,200 -263 Level New York TRACON
Mon 03:37:13 PM 40.9500 -74.0500 180° South 178 205 1,700 -650 Descending New York TRACON
Mon 03:38:13 PM 40.9000 -74.0500 180° South 170 196 900 -800 Descending New York TRACON

Login

Don't have an account? Register now (free) for customized features, flight alerts, and more!